Disclaimer

Please do not use the information listed here in-flight or in-navigation, as they are not provided to us by the airports but are provided by volunteers, so they might be outdated.

Search


Regions


Airport information page

Radio informations:
MANDATORY FREQ - 122.3 MHz
EDMONTON CNTR - 133.85 MHz
YELLOWKNIFE RDO - 126.7 MHz

Airport informations:
Latitude: 60° 50' 23.00" N
Longitude: 115° 46' 58.00" W
Elevation: 543 feet - 166 meters
Operating hours: N/A
Operating agency: Civil government, landing fees and diplomatic clearance may be required
Timezone: Second Sunday in March at 0200 to first Sunday in November at 0200 local time (Exception Arizona and that portion of Indiana in the Eastern Time Zone)
Fuel: N/A

Runway information:
04/22 - 4000 x 150 feet< - >1219 x 46 meters
13/31 - 6000 x 150 feet< - >1829 x 46 meters

Recent METARs:
CYHY 190100Z 14006KT 15SM FEW050 FEW180 BKN240 M16/M19 A3012 RMK SC1AC1CI3 SLP221
CYHY 190200Z 14009KT 15SM FEW160 BKN240 M16/M19 A3010 RMK AC2CI3 SLP212
CYHY 190200Z 14009KT 15SM FEW160 BKN240 M16/M19 A3010 RMK AC2CI3 SLP212

Airport on the map: